createdAt,value
2023-02-23T00:00:36.464Z,21.95
2023-02-23T00:03:06.954Z,15.73
2023-02-23T00:05:36.730Z,18.63
2023-02-23T00:08:05.175Z,16.48
2023-02-23T00:10:32.265Z,15.10
2023-02-23T00:12:59.778Z,18.45
2023-02-23T00:15:27.864Z,17.83
2023-02-23T00:17:58.163Z,22.00
2023-02-23T00:20:28.939Z,18.27
2023-02-23T00:22:57.289Z,21.95
2023-02-23T00:25:25.137Z,17.35
2023-02-23T00:27:52.558Z,19.83
2023-02-23T00:30:24.129Z,16.70
2023-02-23T00:32:52.601Z,16.98
2023-02-23T00:35:19.751Z,17.38
2023-02-23T00:37:50.176Z,17.60
2023-02-23T00:40:18.278Z,17.27
2023-02-23T00:42:45.801Z,17.67
2023-02-23T00:45:16.329Z,28.02
2023-02-23T00:47:44.666Z,19.85
2023-02-23T00:50:14.964Z,18.42
2023-02-23T00:52:43.661Z,18.48
2023-02-23T00:55:12.616Z,15.30
2023-02-23T00:57:40.034Z,19.60
2023-02-23T01:00:20.643Z,18.08
2023-02-23T01:02:48.907Z,18.00
2023-02-23T01:05:16.751Z,19.58
2023-02-23T01:07:46.818Z,17.45
2023-02-23T01:10:23.839Z,20.55
2023-02-23T01:12:52.172Z,18.15
2023-02-23T01:15:20.493Z,19.13
2023-02-23T01:17:50.064Z,16.95
2023-02-23T01:20:19.413Z,20.45
2023-02-23T01:22:49.533Z,17.38
2023-02-23T01:25:19.799Z,18.65
2023-02-23T01:27:46.890Z,18.75
2023-02-23T01:30:15.520Z,18.98
2023-02-23T01:32:42.649Z,16.60
2023-02-23T01:35:11.155Z,19.35
2023-02-23T01:37:42.734Z,16.83
2023-02-23T01:40:15.245Z,18.35
2023-02-23T01:42:45.993Z,20.25
2023-02-23T01:45:27.387Z,17.65
2023-02-23T01:48:07.108Z,24.38
2023-02-23T01:50:42.562Z,22.70
2023-02-23T01:53:12.128Z,22.88
2023-02-23T01:55:39.752Z,19.70
2023-02-23T01:58:17.294Z,19.90
2023-02-23T02:01:01.604Z,19.67
2023-02-23T02:03:34.790Z,20.42
2023-02-23T02:06:03.540Z,18.70
2023-02-23T02:08:33.174Z,17.55
2023-02-23T02:11:00.314Z,19.27
2023-02-23T02:13:30.101Z,16.33
2023-02-23T02:16:35.260Z,17.13
2023-02-23T02:19:21.060Z,18.73
2023-02-23T02:22:10.413Z,19.77
2023-02-23T02:24:58.807Z,16.45
2023-02-23T02:27:37.790Z,18.33
2023-02-23T02:30:43.995Z,19.40
2023-02-23T02:33:37.991Z,18.88
2023-02-23T02:36:11.158Z,19.40
2023-02-23T02:38:59.744Z,18.92
2023-02-23T02:41:30.836Z,28.63
2023-02-23T02:44:08.879Z,16.77
2023-02-23T02:46:41.061Z,20.70
2023-02-23T02:51:42.686Z,15.98
2023-02-23T02:56:47.984Z,17.23
2023-02-23T02:59:36.449Z,26.52
2023-02-23T03:02:23.328Z,22.67
2023-02-23T03:05:08.774Z,19.48
2023-02-23T03:08:00.464Z,19.98
2023-02-23T03:11:01.573Z,19.63
2023-02-23T03:14:09.075Z,26.17
2023-02-23T03:17:19.148Z,17.63
2023-02-23T03:20:23.357Z,21.83
2023-02-23T03:23:19.520Z,19.17
2023-02-23T03:26:13.216Z,21.55
2023-02-23T03:29:21.630Z,20.33
2023-02-23T03:32:29.417Z,20.98
2023-02-23T03:35:37.746Z,20.25
2023-02-23T03:38:27.034Z,20.92
2023-02-23T03:41:13.471Z,24.02
2023-02-23T03:44:06.094Z,22.33
2023-02-23T03:46:52.807Z,24.55
2023-02-23T03:49:39.240Z,19.48
2023-02-23T03:52:30.666Z,21.27
2023-02-23T03:55:24.437Z,19.52
2023-02-23T03:58:12.005Z,20.13
2023-02-23T04:01:02.855Z,21.65
2023-02-23T04:03:50.857Z,17.70
2023-02-23T04:06:37.808Z,17.42
2023-02-23T04:09:25.558Z,18.10
2023-02-23T04:12:11.174Z,20.95
2023-02-23T04:14:49.198Z,19.52
2023-02-23T04:17:17.757Z,22.88
2023-02-23T04:19:52.627Z,25.08
2023-02-23T04:22:20.206Z,20.73
2023-02-23T04:24:47.364Z,18.40
2023-02-23T04:27:15.277Z,25.98
2023-02-23T04:29:42.511Z,15.68
2023-02-23T04:32:18.002Z,17.98
2023-02-23T04:34:45.744Z,21.73
2023-02-23T04:37:13.291Z,19.50
2023-02-23T04:39:40.455Z,28.83
2023-02-23T04:42:07.375Z,19.80
2023-02-23T04:44:34.480Z,23.38
2023-02-23T04:47:01.528Z,22.25
2023-02-23T04:49:28.621Z,18.75
2023-02-23T04:51:55.746Z,21.00
2023-02-23T04:54:22.718Z,20.95
2023-02-23T04:56:49.704Z,25.73
2023-02-23T04:59:16.642Z,23.98
2023-02-23T05:01:45.730Z,24.00
2023-02-23T05:04:12.892Z,21.77
2023-02-23T05:06:39.865Z,25.27
2023-02-23T05:09:07.146Z,25.63
2023-02-23T05:11:34.315Z,22.25
2023-02-23T05:14:01.449Z,21.17
2023-02-23T05:16:28.376Z,22.90
2023-02-23T05:18:55.395Z,19.13
2023-02-23T05:21:25.034Z,24.30
2023-02-23T05:23:54.440Z,28.27
2023-02-23T05:26:21.550Z,18.88
2023-02-23T05:28:48.855Z,22.80
2023-02-23T05:31:16.640Z,25.95
2023-02-23T05:33:45.929Z,21.30
2023-02-23T05:36:16.713Z,24.75
2023-02-23T05:38:45.875Z,19.88
2023-02-23T05:41:15.047Z,20.42
2023-02-23T05:43:42.450Z,18.98
2023-02-23T05:46:16.048Z,18.88
2023-02-23T05:48:43.431Z,22.23
2023-02-23T05:51:13.126Z,21.33
2023-02-23T05:53:40.277Z,19.85
2023-02-23T05:56:09.285Z,22.45
2023-02-23T05:58:36.300Z,46.83
2023-02-23T06:01:03.711Z,31.60
2023-02-23T06:03:30.938Z,30.58
2023-02-23T06:05:58.992Z,27.65
2023-02-23T06:08:26.489Z,28.35
2023-02-23T06:10:53.828Z,29.33
2023-02-23T06:13:21.517Z,26.27
2023-02-23T06:15:49.701Z,26.15
2023-02-23T06:18:17.753Z,26.67
2023-02-23T06:20:46.458Z,24.35
2023-02-23T06:23:15.580Z,27.38
2023-02-23T06:25:43.857Z,35.25
2023-02-23T06:28:11.014Z,35.35
2023-02-23T06:30:38.557Z,28.13
2023-02-23T06:33:05.799Z,39.17
2023-02-23T06:35:33.542Z,49.38
2023-02-23T06:38:01.455Z,42.63
2023-02-23T06:40:29.283Z,60.88
2023-02-23T06:42:59.742Z,56.22
2023-02-23T06:45:29.314Z,70.43
2023-02-23T06:47:57.123Z,44.42
2023-02-23T06:50:24.366Z,96.82
2023-02-23T06:52:51.724Z,56.90
2023-02-23T06:55:18.860Z,73.47
2023-02-23T06:57:49.698Z,82.35
2023-02-23T07:00:17.348Z,85.53
2023-02-23T07:02:44.951Z,76.22
2023-02-23T07:05:12.131Z,73.18
2023-02-23T07:07:39.197Z,53.38
2023-02-23T07:10:06.996Z,52.25
2023-02-23T07:12:34.300Z,52.22
2023-02-23T07:15:01.312Z,67.20
2023-02-23T07:17:28.304Z,47.97
2023-02-23T07:19:55.657Z,66.10
2023-02-23T07:22:25.085Z,54.85
2023-02-23T07:24:51.981Z,28.42
2023-02-23T07:27:19.157Z,30.23
2023-02-23T07:29:49.206Z,29.55
2023-02-23T07:32:16.380Z,28.65
2023-02-23T07:34:43.619Z,24.95
2023-02-23T07:37:10.924Z,21.95
2023-02-23T07:39:37.921Z,19.70
2023-02-23T07:42:04.928Z,24.83
2023-02-23T07:44:31.905Z,37.50
2023-02-23T07:46:59.955Z,32.80
2023-02-23T07:49:27.076Z,41.03
2023-02-23T07:51:54.041Z,24.08
2023-02-23T07:54:22.054Z,26.65
2023-02-23T07:56:51.948Z,26.27
2023-02-23T07:59:21.088Z,44.35
2023-02-23T08:01:48.250Z,40.00
2023-02-23T08:04:15.339Z,36.60
2023-02-23T08:06:44.473Z,23.17
2023-02-23T08:09:11.727Z,28.92
2023-02-23T08:11:38.742Z,25.63
2023-02-23T08:14:05.887Z,32.05
2023-02-23T08:16:35.786Z,21.00
2023-02-23T08:19:03.018Z,22.00
2023-02-23T08:21:30.417Z,24.13
2023-02-23T08:24:00.235Z,21.23
2023-02-23T08:26:27.216Z,26.05
2023-02-23T08:28:55.044Z,21.85
2023-02-23T08:31:24.419Z,23.40
2023-02-23T08:33:52.303Z,22.88
2023-02-23T08:36:20.891Z,21.42
2023-02-23T08:38:48.508Z,22.92
2023-02-23T08:41:15.585Z,21.52
2023-02-23T08:43:44.124Z,23.52
2023-02-23T08:46:11.471Z,22.42
2023-02-23T08:48:40.441Z,25.90
2023-02-23T08:51:08.426Z,26.67
2023-02-23T08:53:36.008Z,29.02
2023-02-23T08:56:06.164Z,22.63
2023-02-23T08:58:34.843Z,19.77
2023-02-23T09:01:02.106Z,22.52
2023-02-23T09:03:32.422Z,25.73
2023-02-23T09:06:09.135Z,22.00
2023-02-23T09:08:36.216Z,21.95
2023-02-23T09:11:03.152Z,22.50
2023-02-23T09:13:30.088Z,20.85
2023-02-23T09:15:57.236Z,28.75
2023-02-23T09:18:24.518Z,23.55
2023-02-23T09:20:51.824Z,33.53
2023-02-23T09:23:18.830Z,24.27
2023-02-23T09:25:46.481Z,24.63
2023-02-23T09:28:15.159Z,28.45
2023-02-23T09:30:42.842Z,25.80
2023-02-23T09:33:10.492Z,23.77
2023-02-23T09:35:37.863Z,28.35
2023-02-23T09:38:06.511Z,22.95
2023-02-23T09:40:53.447Z,29.13
2023-02-23T09:43:36.233Z,30.33
2023-02-23T09:46:21.398Z,22.20
2023-02-23T09:48:48.484Z,23.92
2023-02-23T09:51:19.303Z,25.10
2023-02-23T09:53:54.561Z,24.95
2023-02-23T09:56:25.062Z,26.05
2023-02-23T09:58:52.189Z,26.52
2023-02-23T10:01:41.560Z,26.80
2023-02-23T10:04:15.797Z,23.90
2023-02-23T10:06:45.724Z,21.85
2023-02-23T10:09:22.465Z,27.38
2023-02-23T10:12:10.384Z,32.85
2023-02-23T10:15:01.731Z,25.92
2023-02-23T10:17:28.919Z,28.88
2023-02-23T10:20:09.948Z,29.40
2023-02-23T10:22:37.664Z,25.80
2023-02-23T10:25:10.751Z,24.30
2023-02-23T10:27:42.147Z,26.08
2023-02-23T10:30:26.842Z,29.05
2023-02-23T10:33:01.758Z,28.80
2023-02-23T10:35:32.377Z,26.95
2023-02-23T10:38:01.509Z,26.10
2023-02-23T10:40:33.052Z,30.30
2023-02-23T10:43:03.257Z,30.85
2023-02-23T10:45:34.356Z,30.30
2023-02-23T10:48:05.984Z,24.48
2023-02-23T10:50:33.940Z,28.45
2023-02-23T10:53:11.468Z,29.25
2023-02-23T10:55:38.416Z,31.65
2023-02-23T10:58:18.351Z,28.63
2023-02-23T11:01:08.136Z,27.40
2023-02-23T11:04:05.378Z,27.75
2023-02-23T11:06:36.017Z,28.52
2023-02-23T11:09:17.312Z,24.08
2023-02-23T11:12:00.604Z,28.40
2023-02-23T11:14:29.465Z,33.72
2023-02-23T11:16:58.240Z,37.75
2023-02-23T11:19:37.218Z,26.95
2023-02-23T11:22:05.837Z,26.73
2023-02-23T11:24:38.081Z,28.55
2023-02-23T11:29:38.709Z,32.33
2023-02-23T11:32:28.334Z,22.88
2023-02-23T11:35:16.683Z,29.05
2023-02-23T11:37:43.688Z,27.52
2023-02-23T11:40:29.939Z,28.55
2023-02-23T11:43:09.964Z,32.65
2023-02-23T11:45:47.801Z,32.50
2023-02-23T11:48:54.152Z,34.70
2023-02-23T11:51:39.730Z,37.67
2023-02-23T11:54:10.392Z,32.10
2023-02-23T11:56:39.459Z,44.05
2023-02-23T11:59:10.423Z,49.72
2023-02-23T12:01:46.539Z,55.03
2023-02-23T12:04:37.152Z,28.75
2023-02-23T12:07:25.267Z,27.27
2023-02-23T12:10:21.644Z,25.52
2023-02-23T12:12:57.366Z,27.50
2023-02-23T12:15:44.750Z,30.65
2023-02-23T12:18:30.553Z,30.95
2023-02-23T12:21:03.299Z,32.80
2023-02-23T12:23:33.309Z,39.20
2023-02-23T12:26:23.449Z,42.25
2023-02-23T12:29:00.175Z,30.13
2023-02-23T12:32:01.452Z,35.22
2023-02-23T12:34:37.270Z,32.20
2023-02-23T12:37:24.913Z,37.45
2023-02-23T12:39:57.751Z,30.30
2023-02-23T12:42:49.964Z,28.20
2023-02-23T12:45:27.140Z,32.92
2023-02-23T12:47:56.577Z,42.55
2023-02-23T12:50:32.172Z,65.18
2023-02-23T12:53:12.541Z,31.33
2023-02-23T12:56:14.631Z,36.92
2023-02-23T12:58:50.597Z,42.38
2023-02-23T13:01:30.925Z,38.80
2023-02-23T13:04:04.150Z,53.08
2023-02-23T13:06:40.364Z,36.80
2023-02-23T13:09:33.439Z,34.35
2023-02-23T13:12:00.325Z,37.85
2023-02-23T13:14:33.062Z,36.50
2023-02-23T13:17:21.200Z,40.38
2023-02-23T13:19:53.684Z,38.05
2023-02-23T13:22:36.753Z,51.47
2023-02-23T13:25:10.760Z,49.33
2023-02-23T13:27:45.500Z,38.00
2023-02-23T13:30:13.416Z,38.85
2023-02-23T13:32:40.423Z,38.28
2023-02-23T13:35:20.489Z,35.38
2023-02-23T13:38:01.771Z,40.03
2023-02-23T13:40:58.745Z,37.92
2023-02-23T13:43:32.744Z,103.07
2023-02-23T13:46:34.233Z,47.83
2023-02-23T13:49:35.083Z,40.00
2023-02-23T13:52:29.932Z,47.33
2023-02-23T13:55:04.793Z,47.45
2023-02-23T13:57:36.245Z,39.58
2023-02-23T14:00:04.143Z,46.47
2023-02-23T14:02:37.939Z,45.88
2023-02-23T14:05:15.578Z,42.30
2023-02-23T14:07:47.223Z,46.85
2023-02-23T14:10:22.328Z,40.33
2023-02-23T14:13:27.016Z,38.80
2023-02-23T14:16:17.555Z,45.65
2023-02-23T14:18:55.189Z,48.97
2023-02-23T14:21:22.282Z,51.85
2023-02-23T14:24:15.617Z,41.67
2023-02-23T14:26:44.877Z,48.08
2023-02-23T14:29:27.960Z,47.28
2023-02-23T14:31:57.845Z,47.72
2023-02-23T14:34:47.492Z,44.80
2023-02-23T14:37:25.237Z,43.75
2023-02-23T14:39:54.881Z,40.83
2023-02-23T14:42:25.319Z,41.03
2023-02-23T14:44:54.468Z,52.28
2023-02-23T14:47:23.498Z,42.90
2023-02-23T14:49:58.612Z,48.97
2023-02-23T14:52:35.756Z,51.30
2023-02-23T14:55:11.814Z,44.17
2023-02-23T14:57:40.998Z,46.50
2023-02-23T15:00:23.685Z,48.67
2023-02-23T15:03:17.209Z,47.03
2023-02-23T15:05:46.519Z,48.58
2023-02-23T15:08:16.602Z,52.17
2023-02-23T15:10:52.091Z,43.45
2023-02-23T15:13:29.766Z,47.67
2023-02-23T15:15:58.572Z,52.65
2023-02-23T15:18:34.699Z,54.78
2023-02-23T15:21:07.342Z,44.28
2023-02-23T15:23:37.795Z,53.58
2023-02-23T15:26:31.847Z,51.75
2023-02-23T15:29:13.616Z,43.15
2023-02-23T15:31:50.451Z,46.30
2023-02-23T15:34:30.850Z,55.88
2023-02-23T15:37:01.967Z,54.72
2023-02-23T15:39:54.081Z,52.97
2023-02-23T15:42:25.888Z,61.47
2023-02-23T15:44:59.774Z,78.95
2023-02-23T15:47:33.356Z,62.92
2023-02-23T15:50:08.318Z,50.15
2023-02-23T15:52:40.369Z,47.00
2023-02-23T15:55:09.301Z,51.38
2023-02-23T15:57:47.371Z,53.10
2023-02-23T16:00:32.430Z,57.67
2023-02-23T16:03:04.418Z,49.58
2023-02-23T16:05:46.991Z,50.60
2023-02-23T16:08:24.785Z,52.75
2023-02-23T16:11:02.850Z,54.95
2023-02-23T16:13:30.426Z,51.85
2023-02-23T16:15:57.618Z,49.75
2023-02-23T16:18:41.027Z,57.88
2023-02-23T16:21:11.846Z,54.10
2023-02-23T16:23:44.688Z,60.08
2023-02-23T16:26:53.856Z,60.38
2023-02-23T16:29:31.872Z,63.22
2023-02-23T16:32:03.359Z,63.97
2023-02-23T16:34:35.706Z,64.35
2023-02-23T16:39:51.685Z,53.95
2023-02-23T16:42:24.832Z,66.00
2023-02-23T16:44:51.947Z,71.15
2023-02-23T16:47:24.891Z,69.53
2023-02-23T16:49:52.312Z,70.82
2023-02-23T16:52:25.769Z,63.35
2023-02-23T16:54:55.765Z,73.57
2023-02-23T16:57:29.082Z,61.03
2023-02-23T16:59:57.633Z,61.05
2023-02-23T17:02:24.923Z,62.03
2023-02-23T17:04:53.070Z,64.50
2023-02-23T17:07:23.043Z,64.75
2023-02-23T17:09:51.024Z,64.95
2023-02-23T17:12:20.104Z,68.78
2023-02-23T17:14:47.559Z,71.07
2023-02-23T17:17:16.277Z,57.80
2023-02-23T17:19:45.542Z,65.53
2023-02-23T17:22:14.795Z,76.60
2023-02-23T17:24:43.262Z,72.78
2023-02-23T17:27:10.421Z,81.90
2023-02-23T17:29:39.590Z,77.28
2023-02-23T17:32:06.768Z,90.57
2023-02-23T17:34:33.774Z,71.15
2023-02-23T17:37:12.417Z,72.88
2023-02-23T17:39:40.990Z,77.88
2023-02-23T17:42:08.058Z,79.22
2023-02-23T17:44:34.960Z,76.38
2023-02-23T17:47:02.194Z,69.90
2023-02-23T17:49:29.134Z,67.13
2023-02-23T17:51:56.128Z,74.38
2023-02-23T17:54:23.075Z,72.07
2023-02-23T17:56:50.022Z,73.95
2023-02-23T17:59:19.228Z,68.55
2023-02-23T18:01:48.172Z,68.45
2023-02-23T18:04:16.013Z,75.75
2023-02-23T18:06:42.984Z,71.68
2023-02-23T18:09:09.868Z,75.55
2023-02-23T18:11:36.851Z,79.13
2023-02-23T18:14:03.969Z,77.00
2023-02-23T18:16:34.645Z,73.65
2023-02-23T18:19:01.552Z,76.13
2023-02-23T18:21:28.749Z,71.07
2023-02-23T18:23:55.855Z,71.97
2023-02-23T18:26:23.984Z,70.13
2023-02-23T18:28:55.961Z,74.93
2023-02-23T18:31:25.790Z,77.55
2023-02-23T18:33:53.541Z,80.90
2023-02-23T18:36:24.115Z,75.97
2023-02-23T18:38:51.135Z,75.55
2023-02-23T18:41:18.655Z,74.88
2023-02-23T18:43:45.813Z,79.13
2023-02-23T18:46:13.940Z,71.93
2023-02-23T18:48:41.528Z,75.68
2023-02-23T18:51:14.355Z,65.00
2023-02-23T18:53:42.166Z,70.90
2023-02-23T18:56:23.305Z,81.68
2023-02-23T18:58:51.456Z,73.55
2023-02-23T19:01:21.841Z,66.28
2023-02-23T19:03:50.439Z,71.53
2023-02-23T19:06:19.499Z,70.40
2023-02-23T19:08:54.143Z,82.63
2023-02-23T19:11:29.441Z,73.88
2023-02-23T19:13:59.362Z,67.60
2023-02-23T19:16:27.953Z,69.18
2023-02-23T19:18:55.230Z,69.10
2023-02-23T19:21:25.482Z,68.95
2023-02-23T19:23:53.386Z,64.85
2023-02-23T19:26:21.569Z,65.55
2023-02-23T19:28:48.975Z,63.75
2023-02-23T19:31:20.953Z,67.38
2023-02-23T19:36:22.860Z,77.32
2023-02-23T19:38:50.060Z,80.45
2023-02-23T19:41:19.543Z,75.65
2023-02-23T19:43:47.887Z,65.60
2023-02-23T19:46:21.033Z,67.68
2023-02-23T19:48:52.009Z,64.00
2023-02-23T19:51:19.587Z,72.97
2023-02-23T19:53:46.929Z,65.18
2023-02-23T19:56:17.008Z,76.10
2023-02-23T19:58:48.289Z,74.88
2023-02-23T20:01:18.418Z,71.97
2023-02-23T20:03:49.545Z,76.40
2023-02-23T20:06:19.019Z,78.82
2023-02-23T20:08:48.292Z,95.57
2023-02-23T20:11:19.062Z,97.97
2023-02-23T20:13:46.509Z,104.93
2023-02-23T20:16:16.769Z,115.30
2023-02-23T20:18:44.056Z,103.00
2023-02-23T20:21:15.668Z,105.68
2023-02-23T20:23:43.618Z,98.40
2023-02-23T20:26:15.962Z,91.38
2023-02-23T20:28:43.043Z,87.03
2023-02-23T20:31:18.240Z,81.88
2023-02-23T20:33:45.350Z,92.20
2023-02-23T20:36:12.493Z,79.00
2023-02-23T20:38:42.355Z,85.82
2023-02-23T20:41:09.585Z,88.88
2023-02-23T20:43:38.010Z,86.40
2023-02-23T20:46:05.682Z,84.95
2023-02-23T20:48:35.071Z,93.63
2023-02-23T20:51:02.323Z,81.50
2023-02-23T20:53:29.940Z,86.20
2023-02-23T20:55:57.107Z,87.55
2023-02-23T20:58:25.147Z,84.15
2023-02-23T21:00:57.157Z,79.63
2023-02-23T21:03:25.296Z,85.75
2023-02-23T21:05:52.638Z,79.97
2023-02-23T21:08:20.278Z,76.38
2023-02-23T21:10:48.805Z,78.82
2023-02-23T21:13:16.338Z,76.93
2023-02-23T21:15:44.390Z,73.30
2023-02-23T21:18:11.622Z,71.43
2023-02-23T21:20:39.903Z,72.63
2023-02-23T21:23:07.388Z,73.78
2023-02-23T21:25:34.435Z,74.20
2023-02-23T21:28:03.753Z,82.20
2023-02-23T21:30:33.101Z,85.85
2023-02-23T21:33:00.278Z,79.00
2023-02-23T21:35:30.008Z,77.75
2023-02-23T21:37:59.519Z,77.05
2023-02-23T21:40:26.701Z,75.80
2023-02-23T21:42:53.784Z,69.30
2023-02-23T21:45:20.848Z,77.80
2023-02-23T21:47:49.057Z,75.15
2023-02-23T21:50:17.993Z,80.35
2023-02-23T21:52:46.971Z,75.68
2023-02-23T21:55:23.429Z,78.70
2023-02-23T21:57:51.002Z,75.25
2023-02-23T22:00:21.715Z,73.32
2023-02-23T22:02:52.091Z,75.10
2023-02-23T22:05:20.004Z,74.30
2023-02-23T22:07:52.085Z,78.40
2023-02-23T22:10:20.784Z,77.57
2023-02-23T22:12:50.277Z,78.25
2023-02-23T22:15:17.383Z,78.22
2023-02-23T22:17:44.828Z,75.82
2023-02-23T22:20:12.515Z,74.60
2023-02-23T22:22:39.553Z,73.90
2023-02-23T22:25:07.854Z,79.97
2023-02-23T22:27:34.866Z,76.22
2023-02-23T22:30:02.233Z,68.03
2023-02-23T22:32:33.039Z,69.97
2023-02-23T22:35:01.115Z,68.32
2023-02-23T22:37:32.237Z,69.72
2023-02-23T22:40:15.723Z,71.13
2023-02-23T22:42:48.406Z,66.25
2023-02-23T22:45:16.386Z,70.18
2023-02-23T22:47:43.488Z,72.68
2023-02-23T22:50:12.182Z,64.03
2023-02-23T22:52:39.463Z,69.90
2023-02-23T22:55:08.060Z,64.05
2023-02-23T22:57:35.139Z,65.78
2023-02-23T23:00:10.974Z,70.32
2023-02-23T23:02:38.302Z,79.13
2023-02-23T23:05:05.813Z,63.42
2023-02-23T23:07:32.919Z,68.47
2023-02-23T23:10:05.880Z,64.75
2023-02-23T23:12:34.741Z,69.70
2023-02-23T23:15:02.990Z,76.47
2023-02-23T23:17:32.803Z,70.20
2023-02-23T23:20:10.738Z,61.53
2023-02-23T23:22:38.770Z,66.07
2023-02-23T23:25:14.956Z,66.53
2023-02-23T23:27:46.171Z,76.53
2023-02-23T23:30:13.762Z,67.35
2023-02-23T23:32:41.126Z,66.32
2023-02-23T23:35:11.399Z,70.32
2023-02-23T23:37:41.683Z,71.55
2023-02-23T23:40:14.959Z,75.47
2023-02-23T23:42:46.104Z,68.80
2023-02-23T23:45:24.483Z,68.93
2023-02-23T23:47:51.492Z,64.85
2023-02-23T23:50:18.507Z,71.60
2023-02-23T23:52:45.914Z,59.80
2023-02-23T23:55:14.871Z,62.35
2023-02-23T23:57:42.661Z,63.10
